createdAt,value
2018-09-28T00:01:30.390Z,10.87
2018-09-28T00:03:57.938Z,12.80
2018-09-28T00:06:25.630Z,12.60
2018-09-28T00:08:53.125Z,11.07
2018-09-28T00:11:20.619Z,10.63
2018-09-28T00:13:48.142Z,12.80
2018-09-28T00:16:15.636Z,11.20
2018-09-28T00:18:43.120Z,11.77
2018-09-28T00:21:10.636Z,11.50
2018-09-28T00:23:38.161Z,12.50
2018-09-28T00:26:06.146Z,11.50
2018-09-28T00:28:33.606Z,12.53
2018-09-28T00:31:01.191Z,12.00
2018-09-28T00:33:28.682Z,11.03
2018-09-28T00:35:56.184Z,11.40
2018-09-28T00:38:23.722Z,12.83
2018-09-28T00:40:51.205Z,12.60
2018-09-28T00:43:18.850Z,12.17
2018-09-28T00:45:46.315Z,13.50
2018-09-28T00:48:14.222Z,13.37
2018-09-28T00:50:41.743Z,12.90
2018-09-28T00:53:09.210Z,13.60
2018-09-28T00:55:36.814Z,12.60
2018-09-28T00:58:04.370Z,13.27
2018-09-28T01:00:31.869Z,15.33
2018-09-28T01:02:59.363Z,13.17
2018-09-28T01:05:26.897Z,14.20
2018-09-28T01:07:54.622Z,15.80
2018-09-28T01:10:22.193Z,15.73
2018-09-28T01:12:49.715Z,15.20
2018-09-28T01:15:17.178Z,15.87
2018-09-28T01:17:45.084Z,15.10
2018-09-28T01:20:12.542Z,14.97
2018-09-28T01:22:40.062Z,15.60
2018-09-28T01:25:07.602Z,17.23
2018-09-28T01:27:35.094Z,15.23
2018-09-28T01:30:02.643Z,15.90
2018-09-28T01:32:30.194Z,16.23
2018-09-28T01:34:57.713Z,17.03
2018-09-28T01:37:25.199Z,17.80
2018-09-28T01:39:52.804Z,17.60
2018-09-28T01:42:20.383Z,17.30
2018-09-28T01:44:53.414Z,17.50
2018-09-28T01:47:20.982Z,17.80
2018-09-28T01:49:48.499Z,18.60
2018-09-28T01:52:18.954Z,17.27
2018-09-28T01:54:46.567Z,16.13
2018-09-28T01:57:14.138Z,17.13
2018-09-28T01:59:41.608Z,17.20
2018-09-28T02:02:09.102Z,16.90
2018-09-28T02:04:36.606Z,16.70
2018-09-28T02:07:04.134Z,17.07
2018-09-28T02:09:31.518Z,16.00
2018-09-28T02:11:59.030Z,17.30
2018-09-28T02:14:26.639Z,14.60
2018-09-28T02:16:54.199Z,14.70
2018-09-28T02:19:21.717Z,15.20
2018-09-28T02:21:49.253Z,16.07
2018-09-28T02:24:16.754Z,15.20
2018-09-28T02:26:44.367Z,15.63
2018-09-28T02:29:11.869Z,16.70
2018-09-28T02:31:39.443Z,15.53
2018-09-28T02:34:07.063Z,14.90
2018-09-28T02:36:34.598Z,14.87
2018-09-28T02:39:02.421Z,16.00
2018-09-28T02:41:29.910Z,16.13
2018-09-28T02:43:57.449Z,16.53
2018-09-28T02:46:24.922Z,17.17
2018-09-28T02:48:52.392Z,17.37
2018-09-28T02:51:19.866Z,16.57
2018-09-28T02:53:47.687Z,16.60
2018-09-28T02:56:15.177Z,19.13
2018-09-28T02:58:42.691Z,16.37
2018-09-28T03:01:10.172Z,18.60
2018-09-28T03:03:37.750Z,18.50
2018-09-28T03:06:05.326Z,18.87
2018-09-28T03:08:32.761Z,16.77
2018-09-28T03:11:00.286Z,17.00
2018-09-28T03:13:27.804Z,17.37
2018-09-28T03:15:55.267Z,18.40
2018-09-28T03:18:22.806Z,18.50
2018-09-28T03:20:50.874Z,17.93
2018-09-28T03:23:18.380Z,17.83
2018-09-28T03:25:45.901Z,18.83
2018-09-28T03:28:13.404Z,18.50
2018-09-28T03:30:40.964Z,18.07
2018-09-28T03:33:08.588Z,18.20
2018-09-28T03:35:36.113Z,18.40
2018-09-28T03:38:03.638Z,20.67
2018-09-28T03:40:31.250Z,21.17
2018-09-28T03:42:58.694Z,20.93
2018-09-28T03:45:26.222Z,21.90
2018-09-28T03:47:53.743Z,20.33
2018-09-28T03:50:21.303Z,20.20
2018-09-28T03:52:48.909Z,23.90
2018-09-28T03:55:16.439Z,22.17
2018-09-28T03:57:43.935Z,26.00
2018-09-28T04:00:13.743Z,25.73
2018-09-28T04:02:41.308Z,27.50
2018-09-28T04:05:08.937Z,25.83
2018-09-28T04:07:36.674Z,26.87
2018-09-28T04:10:06.383Z,28.70
2018-09-28T04:12:33.947Z,26.17
2018-09-28T04:15:01.604Z,26.37
2018-09-28T04:17:29.195Z,26.83
2018-09-28T04:19:56.785Z,26.80
2018-09-28T04:22:24.522Z,26.70
2018-09-28T04:24:52.073Z,27.37
2018-09-28T04:27:19.598Z,26.80
2018-09-28T04:29:47.127Z,26.60
2018-09-28T04:32:14.726Z,26.60
2018-09-28T04:34:42.227Z,26.43
2018-09-28T04:37:09.772Z,26.70
2018-09-28T04:39:37.569Z,26.53
2018-09-28T04:42:05.086Z,25.90
2018-09-28T04:44:32.574Z,26.10
2018-09-28T04:47:00.210Z,26.10
2018-09-28T04:49:27.701Z,25.80
2018-09-28T04:51:55.170Z,26.77
2018-09-28T04:54:22.673Z,26.07
2018-09-28T04:56:50.346Z,27.13
2018-09-28T04:59:17.878Z,24.50
2018-09-28T05:01:45.433Z,26.50
2018-09-28T05:04:12.922Z,26.43
2018-09-28T05:06:40.474Z,26.17
2018-09-28T05:09:09.831Z,23.80
2018-09-28T05:11:37.375Z,23.77
2018-09-28T05:14:04.850Z,23.93
2018-09-28T05:16:32.379Z,26.27
2018-09-28T05:18:59.856Z,25.10
2018-09-28T05:21:27.339Z,24.43
2018-09-28T05:23:54.853Z,27.07
2018-09-28T05:26:22.366Z,26.70
2018-09-28T05:28:49.853Z,26.50
2018-09-28T05:31:17.410Z,26.10
2018-09-28T05:33:44.900Z,26.60
2018-09-28T05:36:12.337Z,26.00
2018-09-28T05:38:39.855Z,26.80
2018-09-28T05:41:07.343Z,29.20
2018-09-28T05:43:34.938Z,28.43
2018-09-28T05:46:02.453Z,28.43
2018-09-28T05:48:29.946Z,27.87
2018-09-28T05:50:57.467Z,27.80
2018-09-28T05:53:24.957Z,29.80
2018-09-28T05:55:54.063Z,30.80
2018-09-28T05:58:27.422Z,27.60
2018-09-28T06:01:00.658Z,28.53
2018-09-28T06:03:28.178Z,27.97
2018-09-28T06:05:56.783Z,32.13
2018-09-28T06:08:24.289Z,29.93
2018-09-28T06:10:51.962Z,29.53
2018-09-28T06:13:20.646Z,31.30
2018-09-28T06:15:48.222Z,31.60
2018-09-28T06:18:16.284Z,31.60
2018-09-28T06:20:43.813Z,33.27
2018-09-28T06:23:11.332Z,34.60
2018-09-28T06:25:38.818Z,34.70
2018-09-28T06:28:06.299Z,36.83
2018-09-28T06:30:33.946Z,38.70
2018-09-28T06:33:01.539Z,37.30
2018-09-28T06:35:29.104Z,39.57
2018-09-28T06:37:56.594Z,40.80
2018-09-28T06:40:24.156Z,38.40
2018-09-28T06:42:51.690Z,39.50
2018-09-28T06:45:19.213Z,37.53
2018-09-28T06:47:46.770Z,39.37
2018-09-28T06:50:14.302Z,39.30
2018-09-28T06:52:41.815Z,39.07
2018-09-28T06:55:09.294Z,37.53
2018-09-28T06:57:37.138Z,40.43
2018-09-28T07:00:05.000Z,39.27
2018-09-28T07:02:32.494Z,40.33
2018-09-28T07:05:00.146Z,39.60
2018-09-28T07:07:27.642Z,38.27
2018-09-28T07:09:55.135Z,38.50
2018-09-28T07:12:22.774Z,36.50
2018-09-28T07:14:50.213Z,39.07
2018-09-28T07:17:17.763Z,39.13
2018-09-28T07:19:45.266Z,36.47
2018-09-28T07:22:14.347Z,36.73
2018-09-28T07:24:41.963Z,36.90
2018-09-28T07:27:09.512Z,38.97
2018-09-28T07:29:37.094Z,37.90
2018-09-28T07:32:04.629Z,36.67
2018-09-28T07:34:34.065Z,38.33
2018-09-28T07:37:01.706Z,36.93
2018-09-28T07:39:29.147Z,35.17
2018-09-28T07:41:56.720Z,34.67
2018-09-28T07:44:24.195Z,34.17
2018-09-28T07:46:53.028Z,33.00
2018-09-28T07:49:20.514Z,30.43
2018-09-28T07:51:48.121Z,26.57
2018-09-28T07:54:15.754Z,26.27
2018-09-28T07:56:43.289Z,25.07
2018-09-28T07:59:17.309Z,24.00
2018-09-28T08:01:44.834Z,21.67
2018-09-28T08:04:12.363Z,18.57
2018-09-28T08:06:39.988Z,17.80
2018-09-28T08:09:08.646Z,15.33
2018-09-28T08:11:36.252Z,16.07
2018-09-28T08:14:06.114Z,15.07
2018-09-28T08:16:33.610Z,9.47
2018-09-28T08:19:01.101Z,8.07
2018-09-28T08:21:28.556Z,7.07
2018-09-28T08:23:56.021Z,7.40
2018-09-28T08:26:23.623Z,7.03
2018-09-28T08:28:54.865Z,6.30
2018-09-28T08:31:22.375Z,6.93
2018-09-28T08:33:49.842Z,4.87
2018-09-28T08:36:17.349Z,5.00
2018-09-28T08:38:44.854Z,3.80
2018-09-28T08:41:12.322Z,2.93
2018-09-28T08:43:42.553Z,3.40
2018-09-28T08:46:09.835Z,4.30
2018-09-28T08:48:37.094Z,3.90
2018-09-28T08:51:04.495Z,2.70
2018-09-28T08:53:31.746Z,3.10
2018-09-28T08:55:59.248Z,3.00
2018-09-28T08:58:30.277Z,3.00
2018-09-28T09:00:57.549Z,3.43
2018-09-28T09:03:24.858Z,3.60
2018-09-28T09:05:52.126Z,4.10
2018-09-28T09:08:19.378Z,3.33
2018-09-28T09:10:46.764Z,4.17
2018-09-28T09:13:18.012Z,4.07
2018-09-28T09:15:45.286Z,4.60
2018-09-28T09:18:12.654Z,3.70
2018-09-28T09:20:40.023Z,3.53
2018-09-28T09:23:07.418Z,4.30
2018-09-28T09:25:34.764Z,3.87
2018-09-28T09:28:06.769Z,3.50
2018-09-28T09:30:34.061Z,4.47
2018-09-28T09:33:01.342Z,4.00
2018-09-28T09:35:28.627Z,3.33
2018-09-28T09:37:55.917Z,4.10
2018-09-28T09:40:23.260Z,3.40
2018-09-28T09:42:54.205Z,3.07
2018-09-28T09:45:21.487Z,3.03
2018-09-28T09:47:48.774Z,3.40
2018-09-28T09:50:16.061Z,2.60
2018-09-28T09:52:43.366Z,3.40
2018-09-28T09:55:10.691Z,3.90
2018-09-28T09:57:42.248Z,3.07
2018-09-28T10:00:09.471Z,3.60
2018-09-28T10:02:42.555Z,3.00
2018-09-28T10:05:09.830Z,3.60
2018-09-28T10:07:37.091Z,4.13
2018-09-28T10:10:08.881Z,3.60
2018-09-28T10:12:36.231Z,5.00
2018-09-28T10:15:03.714Z,3.00
2018-09-28T10:17:31.069Z,3.70
2018-09-28T10:19:58.330Z,4.53
2018-09-28T10:22:25.606Z,3.03
2018-09-28T10:24:57.126Z,3.33
2018-09-28T10:27:24.476Z,3.53
2018-09-28T10:29:51.739Z,4.90
2018-09-28T10:32:19.069Z,2.70
2018-09-28T10:34:46.436Z,2.87
2018-09-28T10:37:13.674Z,3.50
2018-09-28T10:39:45.841Z,3.50
2018-09-28T10:42:13.088Z,2.83
2018-09-28T10:44:40.668Z,2.77
2018-09-28T10:47:07.958Z,3.30
2018-09-28T10:49:35.274Z,2.80
2018-09-28T10:52:02.728Z,2.53
2018-09-28T10:54:33.383Z,4.07
2018-09-28T10:57:00.770Z,3.17
2018-09-28T10:59:28.054Z,2.50
2018-09-28T11:01:55.395Z,3.70
2018-09-28T11:04:22.750Z,3.10
2018-09-28T11:06:49.957Z,3.87
2018-09-28T11:09:18.750Z,3.03
2018-09-28T11:11:46.047Z,2.40
2018-09-28T11:14:13.326Z,2.90
2018-09-28T11:16:40.736Z,2.70
2018-09-28T11:19:08.046Z,2.37
2018-09-28T11:21:35.364Z,2.57
2018-09-28T11:24:05.738Z,3.13
2018-09-28T11:26:33.066Z,3.70
2018-09-28T11:29:00.352Z,2.90
2018-09-28T11:31:27.632Z,3.20
2018-09-28T11:33:56.971Z,2.53
2018-09-28T11:36:24.291Z,3.07
2018-09-28T11:38:51.588Z,3.00
2018-09-28T11:41:18.854Z,3.27
2018-09-28T11:43:47.705Z,4.03
2018-09-28T11:46:15.087Z,3.37
2018-09-28T11:48:42.370Z,2.73
2018-09-28T11:51:09.684Z,3.30
2018-09-28T11:53:37.145Z,3.37
2018-09-28T11:56:04.447Z,3.40
2018-09-28T11:58:31.775Z,3.43
2018-09-28T12:00:59.223Z,3.00
2018-09-28T12:03:26.629Z,3.10
2018-09-28T12:05:53.858Z,3.53
2018-09-28T12:08:22.111Z,3.67
2018-09-28T12:10:49.504Z,3.70
2018-09-28T12:13:17.123Z,3.53
2018-09-28T12:15:44.960Z,4.40
2018-09-28T12:18:12.187Z,5.10
2018-09-28T12:20:39.518Z,3.23
2018-09-28T12:23:06.850Z,4.33
2018-09-28T12:25:34.167Z,5.40
2018-09-28T12:28:01.524Z,4.47
2018-09-28T12:30:28.995Z,3.80
2018-09-28T12:32:56.381Z,3.97
2018-09-28T12:35:23.749Z,3.47
2018-09-28T12:37:51.087Z,3.70
2018-09-28T12:40:18.524Z,3.43
2018-09-28T12:42:45.938Z,3.67
2018-09-28T12:45:13.263Z,2.43
2018-09-28T12:47:40.715Z,3.00
2018-09-28T12:50:08.072Z,3.57
2018-09-28T12:52:35.452Z,3.30
2018-09-28T12:55:02.859Z,4.43
2018-09-28T12:57:30.198Z,3.47
2018-09-28T12:59:57.575Z,2.80
2018-09-28T13:02:25.067Z,2.23
2018-09-28T13:04:52.271Z,2.83
2018-09-28T13:07:19.587Z,2.63
2018-09-28T13:09:47.039Z,2.47
2018-09-28T13:12:14.438Z,2.23
2018-09-28T13:14:41.868Z,2.43
2018-09-28T13:17:09.184Z,2.33
2018-09-28T13:19:36.568Z,2.60
2018-09-28T13:22:03.984Z,2.70
2018-09-28T13:24:31.479Z,2.07
2018-09-28T13:26:58.878Z,3.57
2018-09-28T13:29:26.435Z,2.37
2018-09-28T13:31:53.995Z,1.77
2018-09-28T13:34:21.739Z,3.03
2018-09-28T13:36:49.122Z,2.67
2018-09-28T13:39:16.744Z,2.60
2018-09-28T13:41:44.121Z,3.10
2018-09-28T13:44:11.682Z,3.17
2018-09-28T13:46:39.239Z,1.87
2018-09-28T13:49:07.637Z,1.80
2018-09-28T13:51:34.956Z,2.53
2018-09-28T13:54:02.269Z,2.40
2018-09-28T13:56:29.604Z,1.90
2018-09-28T13:58:57.007Z,2.10
2018-09-28T14:01:24.513Z,2.20
2018-09-28T14:03:52.075Z,2.37
2018-09-28T14:06:19.586Z,1.47
2018-09-28T14:08:47.275Z,1.90
2018-09-28T14:11:14.666Z,2.27
2018-09-28T14:13:42.259Z,2.30
2018-09-28T14:16:09.796Z,1.83
2018-09-28T14:18:37.493Z,2.10
2018-09-28T14:21:06.346Z,2.13
2018-09-28T14:23:33.617Z,2.37
2018-09-28T14:26:01.120Z,1.43
2018-09-28T14:28:28.922Z,1.67
2018-09-28T14:30:56.462Z,1.70
2018-09-28T14:33:24.228Z,2.20
2018-09-28T14:35:52.163Z,1.40
2018-09-28T14:38:20.674Z,1.90
2018-09-28T14:40:47.992Z,2.20
2018-09-28T14:43:15.325Z,2.23
2018-09-28T14:45:42.658Z,2.63
2018-09-28T14:48:10.031Z,1.53
2018-09-28T14:50:39.726Z,1.93
2018-09-28T14:53:07.155Z,1.90
2018-09-28T14:55:34.838Z,1.73
2018-09-28T14:58:02.234Z,1.50
2018-09-28T15:00:29.651Z,1.30
2018-09-28T15:02:56.998Z,1.70
2018-09-28T15:05:24.444Z,1.50
2018-09-28T15:07:51.786Z,1.40
2018-09-28T15:10:19.347Z,1.27
2018-09-28T15:12:46.669Z,1.60
2018-09-28T15:15:14.007Z,2.30
2018-09-28T15:17:41.462Z,2.00
2018-09-28T15:20:08.896Z,1.60
2018-09-28T15:22:36.283Z,1.80
2018-09-28T15:25:05.820Z,1.67
2018-09-28T15:27:33.190Z,1.90
2018-09-28T15:30:00.624Z,1.57
2018-09-28T15:32:28.189Z,1.87
2018-09-28T15:34:55.580Z,1.90
2018-09-28T15:37:23.054Z,1.93
2018-09-28T15:39:51.046Z,1.50
2018-09-28T15:42:18.446Z,1.70
2018-09-28T15:44:45.802Z,1.70
2018-09-28T15:47:13.176Z,2.00
2018-09-28T15:49:40.653Z,1.80
2018-09-28T15:52:08.027Z,1.20
2018-09-28T15:54:35.394Z,2.03
2018-09-28T15:57:02.739Z,1.67
2018-09-28T15:59:30.138Z,2.37
2018-09-28T16:01:57.711Z,1.30
2018-09-28T16:04:25.144Z,1.37
2018-09-28T16:06:52.519Z,1.40
2018-09-28T16:09:19.915Z,1.53
2018-09-28T16:11:47.504Z,1.53
2018-09-28T16:14:15.040Z,1.23
2018-09-28T16:16:42.703Z,1.70
2018-09-28T16:19:11.794Z,1.63
2018-09-28T16:21:39.153Z,1.77
2018-09-28T16:24:06.544Z,1.23
2018-09-28T16:26:33.894Z,1.60
2018-09-28T16:29:01.227Z,1.97
2018-09-28T16:31:28.564Z,2.00
2018-09-28T16:33:55.983Z,1.80
2018-09-28T16:36:23.420Z,2.50
2018-09-28T16:38:50.743Z,1.10
2018-09-28T16:41:18.423Z,2.13
2018-09-28T16:43:45.982Z,1.30
2018-09-28T16:46:13.802Z,1.50
2018-09-28T16:48:41.447Z,1.37
2018-09-28T16:51:09.019Z,1.23
2018-09-28T16:53:36.870Z,1.40
2018-09-28T16:56:04.306Z,2.10
2018-09-28T16:58:31.638Z,1.57
2018-09-28T17:00:59.178Z,2.03
2018-09-28T17:05:59.089Z,1.40
2018-09-28T17:08:26.417Z,2.10
2018-09-28T17:10:53.767Z,1.33
2018-09-28T17:13:21.075Z,1.80
2018-09-28T17:15:48.446Z,2.43
2018-09-28T17:18:15.802Z,1.50
2018-09-28T17:20:43.238Z,1.20
2018-09-28T17:23:10.591Z,2.03
2018-09-28T17:25:37.972Z,1.60
2018-09-28T17:28:05.672Z,1.50
2018-09-28T17:30:33.017Z,2.30
2018-09-28T17:33:00.371Z,1.70
2018-09-28T17:35:27.691Z,1.73
2018-09-28T17:37:55.566Z,1.30
2018-09-28T17:40:22.902Z,1.50
2018-09-28T17:42:50.195Z,1.83
2018-09-28T17:45:17.494Z,1.60
2018-09-28T17:47:44.795Z,1.70
2018-09-28T17:50:12.130Z,1.77
2018-09-28T17:52:39.467Z,2.20
2018-09-28T17:55:06.835Z,1.60
2018-09-28T17:57:34.157Z,1.60
2018-09-28T18:00:01.576Z,1.87
2018-09-28T18:02:29.178Z,1.37
2018-09-28T18:04:56.462Z,1.80
2018-09-28T18:07:24.703Z,1.80
2018-09-28T18:09:51.995Z,1.50
2018-09-28T18:12:19.312Z,4.87
2018-09-28T18:14:46.672Z,1.70
2018-09-28T18:17:13.970Z,1.93
2018-09-28T18:19:41.277Z,1.57
2018-09-28T18:22:08.575Z,1.90
2018-09-28T18:24:35.985Z,2.20
2018-09-28T18:27:03.528Z,1.80
2018-09-28T18:29:31.035Z,1.30
2018-09-28T18:31:58.400Z,1.47
2018-09-28T18:34:25.986Z,2.23
2018-09-28T18:36:53.489Z,2.83
2018-09-28T18:39:21.026Z,1.93
2018-09-28T18:41:48.587Z,2.03
2018-09-28T18:44:16.182Z,2.20
2018-09-28T18:46:43.729Z,2.50
2018-09-28T18:49:12.209Z,2.40
2018-09-28T18:51:39.552Z,2.47
2018-09-28T18:54:06.933Z,2.60
2018-09-28T18:56:34.382Z,2.70
2018-09-28T18:59:01.963Z,2.40
2018-09-28T19:01:29.342Z,2.23
2018-09-28T19:03:56.830Z,2.37
2018-09-28T19:06:24.157Z,2.50
2018-09-28T19:08:51.961Z,2.50
2018-09-28T19:11:19.306Z,2.60
2018-09-28T19:13:47.790Z,2.83
2018-09-28T19:16:15.110Z,2.67
2018-09-28T19:18:42.482Z,2.07
2018-09-28T19:21:09.911Z,2.23
2018-09-28T19:23:37.316Z,2.40
2018-09-28T19:26:04.817Z,1.97
2018-09-28T19:28:32.160Z,2.17
2018-09-28T19:30:59.686Z,2.50
2018-09-28T19:33:27.349Z,1.70
2018-09-28T19:35:54.739Z,1.90
2018-09-28T19:38:22.349Z,2.00
2018-09-28T19:40:49.942Z,2.20
2018-09-28T19:43:17.461Z,1.97
2018-09-28T19:45:45.086Z,2.23
2018-09-28T19:48:12.701Z,2.30
2018-09-28T19:50:40.409Z,1.67
2018-09-28T19:53:08.642Z,1.70
2018-09-28T19:55:36.024Z,1.80
2018-09-28T19:58:03.701Z,2.03
2018-09-28T20:00:31.153Z,2.40
2018-09-28T20:02:58.886Z,1.90
2018-09-28T20:05:26.222Z,4.13
2018-09-28T20:07:53.582Z,3.43
2018-09-28T20:10:21.120Z,2.40
2018-09-28T20:12:48.734Z,2.80
2018-09-28T20:15:16.369Z,4.13
2018-09-28T20:17:43.920Z,3.00
2018-09-28T20:20:11.517Z,3.13
2018-09-28T20:22:39.049Z,2.57
2018-09-28T20:25:06.755Z,2.67
2018-09-28T20:27:34.338Z,2.37
2018-09-28T20:30:02.068Z,2.80
2018-09-28T20:32:29.720Z,2.20
2018-09-28T20:34:57.268Z,2.73
2018-09-28T20:37:25.798Z,2.57
2018-09-28T20:39:53.179Z,2.13
2018-09-28T20:42:20.452Z,2.50
2018-09-28T20:44:47.738Z,1.93
2018-09-28T20:47:16.787Z,1.93
2018-09-28T20:49:44.082Z,1.43
2018-09-28T20:52:11.426Z,1.77
2018-09-28T20:54:38.738Z,2.37
2018-09-28T20:57:06.092Z,2.13
2018-09-28T20:59:33.479Z,2.00
2018-09-28T21:02:00.863Z,2.30
2018-09-28T21:04:28.306Z,3.77
2018-09-28T21:06:55.812Z,3.37
2018-09-28T21:09:23.310Z,3.30
2018-09-28T21:11:50.818Z,3.27
2018-09-28T21:14:18.397Z,4.47
2018-09-28T21:16:45.977Z,5.83
2018-09-28T21:19:13.594Z,7.50
2018-09-28T21:21:41.426Z,3.70
2018-09-28T21:24:09.263Z,4.63
2018-09-28T21:26:36.660Z,5.67
2018-09-28T21:29:04.424Z,6.67
2018-09-28T21:31:31.714Z,7.20
2018-09-28T21:33:59.515Z,4.17
2018-09-28T21:36:27.064Z,3.10
2018-09-28T21:38:54.715Z,2.70
2018-09-28T21:41:22.303Z,6.10
2018-09-28T21:43:51.075Z,4.70
2018-09-28T21:46:19.585Z,3.40
2018-09-28T21:48:46.979Z,3.60
2018-09-28T21:51:14.957Z,3.70
2018-09-28T21:53:42.550Z,3.30
2018-09-28T21:56:10.007Z,2.80
2018-09-28T21:58:37.324Z,2.83
2018-09-28T22:01:05.053Z,2.77
2018-09-28T22:03:32.372Z,3.40
2018-09-28T22:05:59.794Z,2.87
2018-09-28T22:08:27.778Z,2.30
2018-09-28T22:10:55.202Z,3.10
2018-09-28T22:13:22.610Z,2.60
2018-09-28T22:15:50.619Z,2.90
2018-09-28T22:18:18.071Z,3.27
2018-09-28T22:20:45.462Z,3.10
2018-09-28T22:23:12.833Z,3.23
2018-09-28T22:25:40.655Z,3.30
2018-09-28T22:28:08.035Z,3.37
2018-09-28T22:30:35.611Z,3.93
2018-09-28T22:33:03.226Z,4.17
2018-09-28T22:35:30.867Z,3.90
2018-09-28T22:37:58.765Z,4.23
2018-09-28T22:40:26.158Z,3.83
2018-09-28T22:42:53.921Z,4.20
2018-09-28T22:45:21.264Z,3.70
2018-09-28T22:47:48.898Z,4.73
2018-09-28T22:50:16.488Z,4.43
2018-09-28T22:52:43.834Z,4.13
2018-09-28T22:55:11.378Z,4.20
2018-09-28T22:57:39.087Z,4.03
2018-09-28T23:00:06.750Z,5.03
2018-09-28T23:02:34.100Z,4.33
2018-09-28T23:05:01.629Z,4.87
2018-09-28T23:07:29.151Z,4.40
2018-09-28T23:09:56.664Z,4.67
2018-09-28T23:12:24.215Z,4.60
2018-09-28T23:14:51.765Z,5.30
2018-09-28T23:17:19.377Z,4.30
2018-09-28T23:19:46.913Z,4.90
2018-09-28T23:22:14.424Z,5.33
2018-09-28T23:24:42.078Z,4.70
2018-09-28T23:27:09.467Z,4.90
2018-09-28T23:29:36.990Z,4.60
2018-09-28T23:32:04.920Z,5.50
2018-09-28T23:34:32.275Z,4.93
2018-09-28T23:36:59.799Z,5.00
2018-09-28T23:39:27.344Z,5.23
2018-09-28T23:41:54.975Z,5.43
2018-09-28T23:44:22.506Z,5.97
2018-09-28T23:46:50.306Z,6.10
2018-09-28T23:49:17.612Z,6.47
2018-09-28T23:51:45.155Z,7.20
2018-09-28T23:54:12.467Z,5.77
2018-09-28T23:56:40.040Z,5.40
2018-09-28T23:59:07.658Z,5.10
